Time;durP1;ratioP1;P1;durP2;ratioP2;P2;SDS_P1;SDS_P2;PMS_P1;PMS_P2;Temp;Humidity;BMP_temperature;BMP_pressure;BME280_temperature;BME280_humidity;BME280_pressure;Samples;Min_cycle;Max_cycle;Signal;HPM_P1;HPM_P2
2022/02/15 00:00:56;;;;;;;43.10;21.52;;;;;;;5.52;77.71;100073.47;6270538;28;20040;-72
2022/02/15 00:03:57;;;;;;;27.80;15.57;;;;;;;5.61;77.20;100073.13;6304063;28;20060;-71
2022/02/15 00:06:57;;;;;;;28.50;13.65;;;;;;;5.55;76.90;100081.97;6280173;28;20039;-72
2022/02/15 00:09:58;;;;;;;29.85;13.65;;;;;;;5.63;77.38;100092.84;6296806;28;20055;-72
2022/02/15 00:13:02;;;;;;;28.67;15.38;;;;;;;5.66;77.58;100078.94;6296225;28;20045;-72
2022/02/15 00:16:03;;;;;;;23.23;12.85;;;;;;;5.67;77.39;100066.84;6297277;28;20048;-68
2022/02/15 00:19:05;;;;;;;21.08;12.55;;;;;;;5.64;77.01;100058.31;6296438;28;20102;-72
2022/02/15 00:22:05;;;;;;;24.97;13.50;;;;;;;5.58;77.84;100071.50;6238109;28;20049;-68
2022/02/15 00:25:07;;;;;;;28.10;13.88;;;;;;;5.57;78.53;100072.38;6277931;28;20445;-68
2022/02/15 00:28:08;;;;;;;24.35;13.32;;;;;;;5.55;78.21;100060.41;6291149;28;20068;-68
2022/02/15 00:31:08;;;;;;;26.45;13.13;;;;;;;5.53;78.27;100060.47;6272249;28;20495;-68
2022/02/15 00:34:10;;;;;;;23.13;12.85;;;;;;;5.48;80.37;100056.38;6271029;28;20048;-68
2022/02/15 00:37:10;;;;;;;22.75;13.35;;;;;;;5.43;80.72;100046.22;6270902;28;20486;-68
2022/02/15 00:40:13;;;;;;;31.70;14.23;;;;;;;5.43;82.39;100041.03;6270546;28;20065;-68
2022/02/15 00:43:15;;;;;;;29.35;14.25;;;;;;;5.37;81.51;100034.34;6307401;28;20048;-71
2022/02/15 00:46:16;;;;;;;25.35;14.60;;;;;;;5.36;80.47;100037.88;6296823;28;20127;-71
2022/02/15 00:49:16;;;;;;;27.40;13.95;;;;;;;5.40;80.34;100036.84;6295735;28;20057;-72
2022/02/15 00:52:17;;;;;;;28.98;13.27;;;;;;;5.43;80.59;100035.88;6295865;28;20142;-71
2022/02/15 00:55:18;;;;;;;26.13;13.55;;;;;;;5.40;80.15;100041.19;6295592;28;20406;-68
2022/02/15 00:58:19;;;;;;;24.00;13.40;;;;;;;5.43;78.90;100035.88;6295628;28;20060;-71
2022/02/15 01:01:20;;;;;;;28.25;16.08;;;;;;;5.50;78.51;100023.50;6299420;28;20127;-71
2022/02/15 01:04:21;;;;;;;25.55;14.70;;;;;;;5.47;78.40;100016.72;6301749;28;20048;-68
2022/02/15 01:07:22;;;;;;;25.33;14.27;;;;;;;5.33;78.46;100013.84;6283655;28;20115;-68
2022/02/15 01:10:23;;;;;;;31.58;18.98;;;;;;;5.37;78.97;100012.81;6283557;28;20045;-67
2022/02/15 01:13:24;;;;;;;30.58;17.60;;;;;;;5.35;78.46;100009.44;6301493;28;20495;-67
2022/02/15 01:16:25;;;;;;;25.63;14.23;;;;;;;5.24;77.73;100005.56;6300066;28;20055;-67
2022/02/15 01:19:26;;;;;;;31.70;16.75;;;;;;;5.32;77.99;100012.19;6299981;28;20044;-67
2022/02/15 01:22:27;;;;;;;23.15;13.25;;;;;;;5.24;78.38;100010.72;6301361;28;20087;-67
2022/02/15 01:25:28;;;;;;;24.23;13.50;;;;;;;5.25;77.05;100001.25;6283502;28;20094;-67
2022/02/15 01:28:30;;;;;;;22.75;12.90;;;;;;;5.33;75.90;99996.56;6299015;28;20052;-68
2022/02/15 01:31:31;;;;;;;27.67;14.50;;;;;;;5.43;77.06;99987.53;6282840;28;20048;-69
2022/02/15 01:34:32;;;;;;;25.13;12.48;;;;;;;5.35;77.14;100001.69;6300706;28;20044;-69
2022/02/15 01:37:32;;;;;;;24.77;11.95;;;;;;;5.33;77.66;99993.97;6299754;28;20067;-69
2022/02/15 01:40:34;;;;;;;22.60;11.93;;;;;;;5.35;77.61;99988.75;6300626;28;20399;-68
2022/02/15 01:43:43;;;;;;;22.23;12.43;;;;;;;5.41;78.40;99986.75;6283034;28;20051;-68
2022/02/15 01:46:43;;;;;;;24.45;12.55;;;;;;;5.40;78.83;99989.44;6299552;28;20056;-68
2022/02/15 01:49:44;;;;;;;20.48;11.50;;;;;;;5.41;78.59;99986.75;6299328;28;20048;-68
2022/02/15 01:52:45;;;;;;;24.08;12.60;;;;;;;5.37;79.30;99981.78;6299376;28;20476;-68
2022/02/15 01:55:46;;;;;;;21.92;12.23;;;;;;;5.25;79.31;99981.38;6299072;28;20056;-68
2022/02/15 01:58:47;;;;;;;25.10;11.90;;;;;;;5.39;79.57;99978.22;6300404;28;20049;-68
2022/02/15 02:01:48;;;;;;;21.10;12.15;;;;;;;5.41;78.92;99985.91;6300466;28;20040;-68
2022/02/15 02:08:09;;;;;;;19.73;10.75;;;;;;;5.47;78.93;99988.25;6298966;28;20056;-67
2022/02/15 02:11:10;;;;;;;;;;;;;;;5.42;78.58;99993.63;6300306;28;20064;-68
2022/02/15 02:14:11;;;;;;;17.67;9.90;;;;;;;5.34;79.65;99995.69;6298888;28;19928;-68
2022/02/15 02:17:12;;;;;;;18.63;11.23;;;;;;;5.33;81.58;99985.38;6298751;28;20074;-68
2022/02/15 02:20:19;;;;;;;22.38;11.57;;;;;;;5.19;83.92;99978.19;6298594;28;20049;-67
2022/02/15 02:23:21;;;;;;;20.90;11.48;;;;;;;5.21;84.18;99982.41;6299989;28;20036;-68
2022/02/15 02:26:22;;;;;;;;;;;;;;;5.15;85.90;99980.06;6300255;28;20052;-68
2022/02/15 02:29:23;;;;;;;21.27;10.98;;;;;;;5.13;86.40;99974.09;6299664;28;19921;-68
2022/02/15 02:32:26;;;;;;;23.45;11.48;;;;;;;5.20;86.62;99978.13;6265350;28;20394;-68
2022/02/15 02:35:27;;;;;;;23.02;12.27;;;;;;;5.03;88.67;99972.78;6275348;28;20064;-68
2022/02/15 02:38:28;;;;;;;24.00;11.50;;;;;;;5.02;87.68;99966.78;6274167;28;20056;-67
2022/02/15 02:41:28;;;;;;;21.30;12.05;;;;;;;5.01;87.97;99977.19;6256769;28;20585;-68
2022/02/15 02:44:29;;;;;;;23.65;11.68;;;;;;;4.99;89.89;99977.22;6274684;28;20120;-68
2022/02/15 02:47:30;;;;;;;24.77;12.48;;;;;;;4.98;90.67;99977.28;6273224;28;20064;-68
2022/02/15 02:50:31;;;;;;;22.80;12.30;;;;;;;4.85;91.20;99972.59;6306632;28;20445;-68
2022/02/15 02:53:32;;;;;;;25.75;12.43;;;;;;;4.91;91.06;99981.84;6274613;28;20041;-68
2022/02/15 02:56:33;;;;;;;21.92;11.80;;;;;;;4.87;91.09;99984.63;6273212;28;20128;-68
2022/02/15 02:59:34;;;;;;;24.80;12.20;;;;;;;4.88;91.34;99979.41;6273995;28;20045;-68
2022/02/15 03:02:35;;;;;;;22.15;11.95;;;;;;;4.92;91.54;99987.88;6274071;28;20472;-68
2022/02/15 03:05:36;;;;;;;23.10;13.27;;;;;;;4.87;92.16;99989.81;6274002;28;20041;-67
2022/02/15 03:08:37;;;;;;;19.38;10.40;;;;;;;4.79;91.76;99988.34;6272530;28;20080;-67
2022/02/15 03:11:38;;;;;;;22.83;11.43;;;;;;;4.88;92.14;99979.41;6256322;28;20045;-68
2022/02/15 03:14:39;;;;;;;19.73;11.43;;;;;;;4.91;94.11;99978.44;6256104;28;20387;-69
2022/02/15 03:17:40;;;;;;;21.45;10.55;;;;;;;4.75;97.08;99984.19;6272471;28;20049;-68
2022/02/15 03:20:41;;;;;;;21.40;10.43;;;;;;;4.62;100.00;99980.38;6273652;28;20048;-69
2022/02/15 03:23:43;;;;;;;18.90;10.40;;;;;;;4.59;100.00;99983.94;6272785;28;20067;-69
2022/02/15 03:26:43;;;;;;;22.63;10.98;;;;;;;4.61;100.00;99976.97;6272921;28;20091;-70
2022/02/15 03:29:44;;;;;;;17.88;10.85;;;;;;;4.49;100.00;99979.16;6272562;28;20041;-71
2022/02/15 03:32:45;;;;;;;17.95;9.45;;;;;;;4.45;100.00;99975.84;6254627;28;20044;-71
2022/02/15 03:35:46;;;;;;;18.88;10.18;;;;;;;4.63;100.00;99974.31;6273233;28;20040;-74
2022/02/15 03:38:46;;;;;;;20.05;10.23;;;;;;;4.64;100.00;99974.25;6295386;28;20467;-74
2022/02/15 03:45:07;;;;;;;21.42;10.65;;;;;;;4.66;100.00;99968.19;6297072;28;20043;-74
2022/02/15 03:48:08;;;;;;;17.10;9.65;;;;;;;4.61;100.00;99969.22;6276563;28;20052;-74
2022/02/15 03:51:09;;;;;;;18.58;9.60;;;;;;;4.68;100.00;99976.75;6271245;28;20049;-74
2022/02/15 03:54:10;;;;;;;21.80;10.60;;;;;;;4.61;100.00;99978.69;6254221;28;20057;-74
2022/02/15 03:57:11;;;;;;;21.50;10.77;;;;;;;4.72;100.00;99981.72;6270715;28;20053;-74
2022/02/15 04:00:13;;;;;;;20.70;10.20;;;;;;;4.65;100.00;99988.00;6277005;28;20479;-70
2022/02/15 04:03:14;;;;;;;20.63;11.55;;;;;;;4.62;100.00;99982.97;6262439;28;20422;-74
2022/02/15 04:06:15;;;;;;;19.17;9.82;;;;;;;4.68;100.00;99977.56;6296854;28;20045;-71
2022/02/15 04:09:16;;;;;;;21.27;10.10;;;;;;;4.62;100.00;99981.22;6329006;28;20479;-71
2022/02/15 04:12:17;;;;;;;20.58;10.27;;;;;;;4.56;100.00;99975.44;6278804;28;20048;-71
2022/02/15 04:15:19;;;;;;;19.13;10.68;;;;;;;4.51;100.00;99972.19;6295280;28;20036;-71
2022/02/15 04:18:20;;;;;;;26.33;9.90;;;;;;;4.52;100.00;99963.53;6296394;28;20048;-71
2022/02/15 04:21:23;;;;;;;19.95;10.07;;;;;;;4.53;100.00;99970.38;6296361;28;20057;-71
2022/02/15 04:24:24;;;;;;;19.02;10.35;;;;;;;4.48;100.00;99972.31;6295335;28;20402;-71
2022/02/15 04:27:25;;;;;;;17.55;9.80;;;;;;;4.54;100.00;99972.91;6278410;28;20056;-71
2022/02/15 04:30:26;;;;;;;22.30;10.27;;;;;;;4.61;100.00;99978.69;6294938;28;20453;-71
2022/02/15 04:33:26;;;;;;;23.02;11.63;;;;;;;4.50;100.00;99973.94;6295109;28;20127;-70
2022/02/15 04:36:27;;;;;;;25.48;11.63;;;;;;;4.58;100.00;99965.91;6294852;28;20123;-71
2022/02/15 04:39:28;;;;;;;20.65;10.25;;;;;;;4.58;100.00;99966.72;6294579;28;20518;-71
2022/02/15 04:42:29;;;;;;;25.40;10.95;;;;;;;4.58;100.00;99963.31;6294793;28;20139;-70
2022/02/15 04:45:30;;;;;;;21.23;10.60;;;;;;;4.59;100.00;99962.41;6294967;28;20533;-70
2022/02/15 04:48:30;;;;;;;21.30;9.80;;;;;;;4.57;100.00;99966.78;6272270;28;20053;-71
2022/02/15 04:51:32;;;;;;;19.95;10.77;;;;;;;4.67;100.00;99970.72;6253219;28;20049;-70
2022/02/15 04:54:33;;;;;;;21.05;11.05;;;;;;;4.67;100.00;99978.47;6270017;28;20053;-71
2022/02/15 04:57:34;;;;;;;22.67;10.82;;;;;;;4.66;100.00;99974.22;6271136;28;20407;-70
2022/02/15 05:00:35;;;;;;;15.10;8.27;;;;;;;4.70;100.00;99980.94;6257532;28;20047;-70
2022/02/15 05:03:36;;;;;;;23.92;10.93;;;;;;;4.72;100.00;99983.47;6282776;28;20037;-71
2022/02/15 05:06:37;;;;;;;20.98;10.65;;;;;;;4.72;100.00;99978.31;6291960;28;20128;-71
2022/02/15 05:09:37;;;;;;;24.65;10.65;;;;;;;4.73;100.00;99980.81;6270249;28;20095;-72
2022/02/15 05:12:38;;;;;;;21.92;11.30;;;;;;;4.73;100.00;99985.97;6221152;28;20052;-71
2022/02/15 05:15:39;;;;;;;18.10;10.10;;;;;;;4.61;100.00;99981.28;6259900;28;20487;-72
2022/02/15 05:18:40;;;;;;;18.40;9.93;;;;;;;4.67;100.00;99991.38;6296440;28;20150;-72
2022/02/15 05:21:41;;;;;;;24.95;11.43;;;;;;;4.72;100.00;99986.91;6296340;28;20041;-72
2022/02/15 05:24:42;;;;;;;20.67;10.85;;;;;;;4.70;100.00;99985.28;6295232;28;20484;-71
2022/02/15 05:27:43;;;;;;;20.42;10.88;;;;;;;4.68;100.00;99987.91;6264403;28;20057;-72
2022/02/15 05:30:44;;;;;;;22.17;10.73;;;;;;;4.67;100.00;99986.22;6254941;28;20044;-71
2022/02/15 05:33:45;;;;;;;19.42;11.32;;;;;;;4.78;100.00;99983.25;6269399;28;20411;-72
2022/02/15 05:36:46;;;;;;;19.25;10.25;;;;;;;4.72;100.00;99992.06;6236360;28;20053;-71
2022/02/15 05:39:47;;;;;;;19.15;10.05;;;;;;;4.71;100.00;99981.78;6270372;28;20106;-71
2022/02/15 05:42:47;;;;;;;22.05;10.75;;;;;;;4.61;100.00;99974.38;6293111;28;20040;-71
2022/02/15 05:45:49;;;;;;;24.60;11.80;;;;;;;4.71;100.00;99981.78;6294486;28;20041;-71
2022/02/15 05:48:49;;;;;;;31.40;12.82;;;;;;;4.77;100.00;99984.13;6299945;28;20055;-71
2022/02/15 05:51:50;;;;;;;20.00;9.30;;;;;;;4.68;100.00;99987.09;6298658;28;20376;-72
2022/02/15 05:54:51;;;;;;;20.80;11.30;;;;;;;4.80;100.00;99990.03;6298599;28;20033;-71
2022/02/15 05:57:52;;;;;;;20.45;10.63;;;;;;;4.74;100.00;99997.19;6266389;28;20108;-70
2022/02/15 06:00:53;;;;;;;16.85;10.88;;;;;;;4.74;100.00;99990.25;6280083;28;20119;-72
2022/02/15 06:04:11;;;;;;;18.80;10.55;;;;;;;4.78;100.00;99991.00;6263931;28;20422;-72
2022/02/15 06:07:12;;;;;;;20.52;11.15;;;;;;;4.78;100.00;99989.25;6283028;28;20053;-72
2022/02/15 06:10:13;;;;;;;19.15;11.00;;;;;;;4.71;100.00;100008.47;6297676;28;20518;-72
2022/02/15 06:13:15;;;;;;;17.75;10.35;;;;;;;4.80;100.00;100002.97;6299108;28;20123;-71
2022/02/15 06:16:16;;;;;;;19.10;10.90;;;;;;;4.75;100.00;100002.28;6297790;28;20047;-72
2022/02/15 06:19:17;;;;;;;22.45;10.82;;;;;;;4.76;100.00;100008.31;6297735;28;20090;-72
2022/02/15 06:22:17;;;;;;;20.23;10.60;;;;;;;4.75;100.00;100010.03;6298741;28;20111;-71
2022/02/15 06:25:18;;;;;;;19.27;11.23;;;;;;;4.81;100.00;100014.97;6280905;28;20503;-71
2022/02/15 06:28:19;;;;;;;21.73;10.18;;;;;;;4.75;100.00;100009.19;6280734;28;20113;-71
2022/02/15 06:31:20;;;;;;;20.77;10.80;;;;;;;4.81;100.00;100003.78;6264261;28;20559;-71
2022/02/15 06:34:22;;;;;;;20.23;9.38;;;;;;;4.69;100.00;100002.50;6280832;28;20040;-72
2022/02/15 06:37:22;;;;;;;21.63;11.10;;;;;;;4.81;100.00;100007.22;6298455;28;20418;-71
2022/02/15 06:40:23;;;;;;;17.05;9.68;;;;;;;4.79;100.00;100001.25;6296975;28;20056;-71
2022/02/15 06:43:24;;;;;;;16.33;9.52;;;;;;;4.90;100.00;100020.69;6280453;28;20048;-71
2022/02/15 06:46:25;;;;;;;20.70;11.15;;;;;;;4.80;100.00;100015.88;6280611;28;20041;-71
2022/02/15 06:49:26;;;;;;;18.02;9.88;;;;;;;4.81;100.00;100016.72;6296850;28;20055;-71
2022/02/15 06:52:28;;;;;;;18.67;10.25;;;;;;;4.94;100.00;100019.69;6280169;28;20048;-71
2022/02/15 06:55:28;;;;;;;20.65;11.57;;;;;;;4.87;100.00;100026.81;6296887;28;20033;-71
2022/02/15 06:58:29;;;;;;;21.10;11.02;;;;;;;4.88;100.00;100019.91;6296771;28;20536;-71
2022/02/15 07:01:31;;;;;;;19.50;10.32;;;;;;;4.90;100.00;100012.94;6296602;28;20048;-71
2022/02/15 07:04:32;;;;;;;25.17;11.03;;;;;;;4.85;100.00;100013.94;6296658;28;20033;-71
2022/02/15 07:07:33;;;;;;;22.55;10.68;;;;;;;4.92;100.00;100008.56;6263288;28;20506;-72
2022/02/15 07:10:36;;;;;;;20.92;11.05;;;;;;;4.95;100.00;100013.63;6263205;28;20139;-72
2022/02/15 07:13:36;;;;;;;;;;;;;;;5.00;100.00;100012.56;6296920;28;20068;-75
2022/02/15 07:16:38;;;;;;;19.23;10.20;;;;;;;5.07;100.00;100020.91;6296327;28;20337;-75
2022/02/15 07:19:39;;;;;;;21.38;10.90;;;;;;;5.07;100.00;100020.91;6296104;28;20502;-75
2022/02/15 07:22:40;;;;;;;17.92;10.60;;;;;;;5.21;100.00;100030.72;6279344;28;20048;-74
2022/02/15 07:25:41;;;;;;;23.13;11.43;;;;;;;5.18;100.00;100028.25;6296052;28;20067;-75
2022/02/15 07:28:41;;;;;;;18.00;10.63;;;;;;;5.17;100.00;100021.41;6296207;28;20491;-71
2022/02/15 07:31:42;;;;;;;19.63;10.10;;;;;;;5.25;100.00;100024.53;6295740;28;20497;-75
2022/02/15 07:34:43;;;;;;;18.23;11.00;;;;;;;5.18;100.00;100025.66;6295880;28;20057;-75
2022/02/15 07:37:47;;;;;;;22.90;11.13;;;;;;;5.16;100.00;100012.78;6296858;28;20041;-75
2022/02/15 07:40:48;;;;;;;19.00;10.75;;;;;;;5.14;100.00;100012.00;6262098;28;20109;-75
2022/02/15 07:43:49;;;;;;;21.45;11.15;;;;;;;5.20;100.00;100014.34;6295660;28;20048;-74
2022/02/15 07:46:50;;;;;;;20.98;10.82;;;;;;;5.36;100.00;100018.91;6278984;28;20539;-75
2022/02/15 07:49:51;;;;;;;23.10;10.18;;;;;;;5.42;100.00;100016.91;6279169;28;20044;-74
2022/02/15 07:52:53;;;;;;;22.38;10.55;;;;;;;5.34;100.00;100013.78;6296634;28;20037;-72
2022/02/15 07:55:54;;;;;;;15.82;8.27;;;;;;;5.41;100.00;100024.72;6279052;28;20422;-71
2022/02/15 07:58:55;;;;;;;20.75;10.43;;;;;;;5.42;100.00;100023.84;6262386;28;20044;-71
2022/02/15 08:01:56;;;;;;;19.42;10.25;;;;;;;5.51;100.00;100023.47;6278712;28;20503;-71
2022/02/15 08:04:57;;;;;;;11.23;6.72;;;;;;;5.44;100.00;100034.97;6295187;28;20094;-72
2022/02/15 08:07:58;;;;;;;18.25;10.05;;;;;;;5.56;100.00;100031.03;6329014;28;20044;-75
2022/02/15 08:10:59;;;;;;;18.20;9.25;;;;;;;5.63;100.00;100027.31;6294632;28;20044;-75
2022/02/15 08:14:00;;;;;;;14.45;9.48;;;;;;;5.60;100.00;100037.75;6278352;28;20063;-74
2022/02/15 08:17:01;;;;;;;21.10;10.20;;;;;;;5.57;100.00;100032.72;6296225;28;20400;-75
2022/02/15 08:20:02;;;;;;;19.15;9.68;;;;;;;5.68;100.00;100035.72;6295032;28;20048;-74
2022/02/15 08:23:03;;;;;;;15.95;9.65;;;;;;;5.69;100.00;100041.75;6294719;28;20063;-74
2022/02/15 08:26:04;;;;;;;19.05;10.70;;;;;;;5.76;100.00;100049.19;6294867;28;20048;-75
2022/02/15 08:29:05;;;;;;;20.55;10.23;;;;;;;5.86;100.00;100044.47;6261887;28;20544;-75
2022/02/15 08:32:06;;;;;;;19.55;9.45;;;;;;;5.84;100.00;100039.34;6277971;28;20048;-72
2022/02/15 08:35:08;;;;;;;15.05;9.05;;;;;;;5.84;100.00;100038.50;6294741;28;20044;-71
2022/02/15 08:38:09;;;;;;;18.33;9.90;;;;;;;6.00;100.00;100047.34;6294811;28;20044;-72
2022/02/15 08:41:12;;;;;;;18.02;9.93;;;;;;;5.92;100.00;100039.03;6295686;28;20075;-75
2022/02/15 08:44:13;;;;;;;19.10;9.82;;;;;;;5.90;100.00;100042.59;6295011;28;20056;-75
2022/02/15 08:47:14;;;;;;;19.80;10.13;;;;;;;5.97;100.00;100051.81;6278126;28;20105;-75
2022/02/15 08:50:16;;;;;;;16.17;9.13;;;;;;;6.01;100.00;100051.66;6277939;28;20036;-75
2022/02/15 08:53:17;;;;;;;20.08;10.23;;;;;;;5.89;100.00;100059.91;6294583;28;20041;-76
2022/02/15 08:56:21;;;;;;;22.23;12.18;;;;;;;5.93;100.00;100053.69;6294468;28;20457;-75
2022/02/15 08:59:22;;;;;;;28.50;12.35;;;;;;;5.90;100.00;100048.63;6294468;28;20380;-72
2022/02/15 09:02:24;;;;;;;22.80;10.88;;;;;;;6.04;100.00;100042.91;6295688;28;20036;-71
2022/02/15 09:05:25;;;;;;;16.33;10.67;;;;;;;6.24;100.00;100044.66;6277718;28;20110;-71
2022/02/15 09:08:26;;;;;;;25.60;10.93;;;;;;;6.23;100.00;100056.72;6277885;28;20072;-72
2022/02/15 09:11:27;;;;;;;18.45;10.07;;;;;;;6.20;100.00;100054.28;6295512;28;20043;-72
2022/02/15 09:14:29;;;;;;;15.18;9.57;;;;;;;6.12;100.00;100056.38;6294315;28;20079;-71
2022/02/15 09:17:36;;;;;;;18.27;9.90;;;;;;;6.21;100.00;100066.31;6277711;28;20060;-75
2022/02/15 09:20:38;;;;;;;19.10;10.60;;;;;;;6.33;100.00;100051.16;6294198;28;20064;-72
2022/02/15 09:23:39;;;;;;;21.13;11.93;;;;;;;6.21;100.00;100057.72;6298773;28;20045;-72
2022/02/15 09:26:40;;;;;;;22.13;10.20;;;;;;;6.31;100.00;100047.81;6282415;28;20125;-71
2022/02/15 09:29:41;;;;;;;17.50;11.15;;;;;;;6.38;100.00;100050.06;6282225;28;20044;-71
2022/02/15 09:32:42;;;;;;;20.63;12.60;;;;;;;6.42;100.00;100042.97;6300075;28;20061;-75
2022/02/15 09:35:42;;;;;;;24.95;11.35;;;;;;;6.33;100.00;100056.34;6298742;28;20055;-71
2022/02/15 09:38:43;;;;;;;17.42;10.25;;;;;;;6.42;100.00;100049.03;6298229;28;20061;-75
2022/02/15 09:41:45;;;;;;;15.50;9.60;;;;;;;6.62;100.00;100052.47;6281910;28;20052;-75
2022/02/15 09:44:47;;;;;;;17.67;10.20;;;;;;;6.44;100.00;100064.50;6298457;28;20494;-75
2022/02/15 09:47:51;;;;;;;15.20;9.53;;;;;;;6.66;100.00;100054.03;6298556;28;20036;-75
2022/02/15 09:50:52;;;;;;;16.80;9.68;;;;;;;6.64;100.00;100061.03;6298271;28;20099;-71
2022/02/15 09:53:53;;;;;;;15.73;9.43;;;;;;;6.69;100.00;100048.69;6299505;28;20102;-71
2022/02/15 09:56:54;;;;;;;22.02;10.07;;;;;;;6.79;100.00;100054.31;6298104;28;20056;-71
2022/02/15 09:59:55;;;;;;;16.23;9.23;;;;;;;6.83;100.00;100048.06;6298059;28;20056;-75
2022/02/15 10:02:57;;;;;;;16.75;8.45;;;;;;;6.71;100.00;100039.09;6298104;28;20065;-75
2022/02/15 10:05:58;;;;;;;15.27;8.77;;;;;;;6.69;100.00;100038.31;6298151;28;20036;-74
2022/02/15 10:09:01;;;;;;;19.10;9.52;;;;;;;6.59;100.00;100037.03;6297972;28;20052;-71
2022/02/15 10:12:11;;;;;;;13.60;8.70;;;;;;;6.75;100.00;100035.44;6281543;28;20045;-72
2022/02/15 10:15:12;;;;;;;23.30;12.25;;;;;;;6.81;100.00;100031.72;6297757;28;20059;-71
2022/02/15 10:18:25;;;;;;;27.52;14.02;;;;;;;6.94;100.00;100026.81;6298951;28;20070;-71
2022/02/15 10:21:29;;;;;;;16.25;9.45;;;;;;;6.96;100.00;100033.63;6297802;28;20479;-71
2022/02/15 10:24:33;;;;;;;16.02;9.68;;;;;;;6.88;100.00;100037.47;6298791;28;20476;-71
2022/02/15 10:27:35;;;;;;;14.10;8.88;;;;;;;6.97;100.00;100030.13;6297576;28;20048;-71
2022/02/15 10:30:42;;;;;;;16.95;9.68;;;;;;;7.01;100.00;100028.22;6314555;28;20052;-71
2022/02/15 10:33:48;;;;;;;14.13;8.68;;;;;;;7.03;100.00;100029.84;6296949;28;20049;-71
2022/02/15 10:37:02;;;;;;;16.35;9.40;;;;;;;7.10;100.00;100029.53;6297458;28;20123;-74
2022/02/15 10:40:06;;;;;;;14.25;9.27;;;;;;;7.22;100.00;100036.75;6280364;28;20044;-74
2022/02/15 10:43:07;;;;;;;18.33;10.02;;;;;;;7.32;100.00;100029.38;6330871;28;20159;-74
2022/02/15 10:46:13;;;;;;;19.08;10.57;;;;;;;7.36;100.00;100029.16;6298426;28;20483;-75
2022/02/15 10:49:15;;;;;;;19.23;9.93;;;;;;;7.45;100.00;100033.91;6297124;28;20075;-74
2022/02/15 10:52:16;;;;;;;12.95;8.45;;;;;;;7.43;100.00;100029.69;6298305;28;20583;-75
2022/02/15 10:55:17;;;;;;;16.15;9.52;;;;;;;7.52;100.00;100020.63;6296900;28;20045;-75
2022/02/15 10:58:18;;;;;;;15.05;7.95;;;;;;;7.49;100.00;100034.59;6263633;28;20064;-71
2022/02/15 11:01:21;;;;;;;14.00;9.50;;;;;;;7.73;100.00;100027.34;6297857;28;20032;-75
2022/02/15 11:04:23;;;;;;;19.63;11.03;;;;;;;7.69;100.00;100031.03;6313511;28;20048;-71
2022/02/15 11:07:28;;;;;;;;;;;;;;;7.67;100.00;100027.66;6297107;28;20098;-74
2022/02/15 11:10:39;;;;;;;14.63;9.02;;;;;;;7.85;100.00;100031.09;6296445;28;19981;-71
2022/02/15 11:13:41;;;;;;;16.52;10.07;;;;;;;7.96;100.00;100025.38;6297730;28;20455;-74
2022/02/15 11:16:48;;;;;;;16.08;9.18;;;;;;;8.06;100.00;100027.41;6279808;28;20076;-75
2022/02/15 11:20:10;;;;;;;16.45;10.05;;;;;;;8.19;100.00;100022.41;6297537;28;20041;-70
2022/02/15 11:23:17;;;;;;;17.15;9.93;;;;;;;8.34;100.00;100015.59;6296219;28;20130;-70
2022/02/15 11:26:18;;;;;;;20.55;10.50;;;;;;;8.29;100.00;100015.00;6297837;28;20122;-71
2022/02/15 11:29:21;;;;;;;21.55;10.07;;;;;;;8.27;100.00;100020.25;6296143;28;20136;-71
2022/02/15 11:32:31;;;;;;;17.45;10.55;;;;;;;8.36;100.00;100018.97;6297293;28;20045;-71
2022/02/15 11:35:34;;;;;;;14.95;9.43;;;;;;;8.40;100.00;100014.41;6295884;28;20052;-70
2022/02/15 11:38:35;;;;;;;;;;;;;;;8.54;99.71;100009.38;6296167;28;20052;-71
2022/02/15 11:41:45;;;;;;;19.77;10.80;;;;;;;8.72;100.00;100007.53;6295657;28;19991;-70
2022/02/15 11:44:46;;;;;;;18.52;10.60;;;;;;;8.79;100.00;100011.50;6295251;28;20048;-74
2022/02/15 11:47:47;;;;;;;16.95;9.65;;;;;;;8.94;100.00;100012.44;6295436;28;20465;-70
2022/02/15 11:50:52;;;;;;;18.40;11.02;;;;;;;9.10;100.00;100008.97;6312655;28;20406;-72
2022/02/15 11:53:55;;;;;;;17.05;9.95;;;;;;;8.90;97.87;100003.13;6278672;28;20497;-70
2022/02/15 11:56:57;;;;;;;15.32;9.77;;;;;;;9.18;97.70;99997.22;6296647;28;20089;-71
2022/02/15 11:59:58;;;;;;;15.63;9.23;;;;;;;9.23;95.53;99996.97;6296435;28;20041;-71
2022/02/15 12:02:58;;;;;;;16.90;9.52;;;;;;;9.23;92.34;100000.41;6295361;28;20040;-71
2022/02/15 12:06:01;;;;;;;15.13;9.15;;;;;;;9.26;86.97;100010.63;6295006;28;20049;-70
2022/02/15 12:09:02;;;;;;;;;;;;;;;9.26;85.64;100005.41;6296923;28;20910;-71
2022/02/15 12:12:08;;;;;;;17.75;9.07;;;;;;;9.27;85.57;99996.69;6296419;28;19948;-70
2022/02/15 12:15:10;;;;;;;19.38;9.63;;;;;;;9.34;86.08;99999.78;6296266;28;20449;-74
2022/02/15 12:18:11;;;;;;;20.08;9.82;;;;;;;9.55;85.07;99992.50;6328843;28;20418;-70
2022/02/15 12:21:12;;;;;;;16.85;9.48;;;;;;;9.67;84.39;99993.56;6296206;28;20068;-70
2022/02/15 12:24:13;;;;;;;16.17;10.00;;;;;;;9.78;84.27;99998.13;6295205;28;20445;-70
2022/02/15 12:27:14;;;;;;;21.98;10.82;;;;;;;9.76;83.73;99984.38;6296110;28;20044;-70
2022/02/15 12:30:17;;;;;;;16.42;10.02;;;;;;;9.80;83.82;99986.72;6294895;28;20075;-74
2022/02/15 12:33:20;;;;;;;22.50;10.63;;;;;;;9.96;84.92;99991.00;6296040;28;20040;-74
2022/02/15 12:36:20;;;;;;;17.70;10.75;;;;;;;9.85;85.46;99997.69;6294684;28;20109;-73
2022/02/15 12:39:31;;;;;;;16.10;9.80;;;;;;;10.01;85.88;99994.19;6294476;28;20079;-70
2022/02/15 12:42:34;;;;;;;20.88;11.38;;;;;;;10.16;87.88;100002.88;6294777;28;20037;-74
2022/02/15 12:45:41;;;;;;;;;;;;;;;9.85;84.94;100002.91;6295168;28;20055;-71
2022/02/15 12:48:42;;;;;;;17.60;9.95;;;;;;;10.11;86.24;99990.13;6295933;28;19963;-73
2022/02/15 12:51:46;;;;;;;19.77;11.50;;;;;;;10.12;86.95;99996.16;6294697;28;20044;-74
2022/02/15 12:54:56;;;;;;;17.73;10.32;;;;;;;10.18;87.74;99987.97;6277904;28;20403;-73
2022/02/15 12:57:57;;;;;;;18.58;10.48;;;;;;;10.18;88.05;99983.59;6301025;28;20075;-73
2022/02/15 13:01:01;;;;;;;16.40;10.75;;;;;;;9.98;89.01;99989.16;6266350;28;20041;-69
2022/02/15 13:04:05;;;;;;;16.67;10.98;;;;;;;10.13;86.47;99998.69;6299319;28;20045;-69
2022/02/15 13:07:06;;;;;;;16.95;9.68;;;;;;;10.08;85.97;99998.09;6299303;28;20139;-73
2022/02/15 13:10:08;;;;;;;18.23;10.35;;;;;;;10.24;85.11;99996.25;6299298;28;20058;-69
2022/02/15 13:13:11;;;;;;;20.35;10.13;;;;;;;10.21;86.51;99996.47;6299315;28;20498;-73
2022/02/15 13:16:12;;;;;;;15.00;9.95;;;;;;;10.27;87.73;99987.41;6300455;28;20067;-73
2022/02/15 13:19:14;;;;;;;18.15;10.32;;;;;;;10.42;84.74;99994.34;6299322;28;20140;-72
2022/02/15 13:22:22;;;;;;;17.42;9.57;;;;;;;10.54;85.29;99990.13;6282726;28;20503;-73
2022/02/15 13:25:23;;;;;;;19.52;10.57;;;;;;;10.42;86.10;99998.72;6298950;28;20302;-73
2022/02/15 13:28:27;;;;;;;18.30;10.30;;;;;;;10.58;85.09;99991.59;6299122;28;20101;-73
2022/02/15 13:31:28;;;;;;;15.35;10.45;;;;;;;10.75;83.97;99990.56;6298807;28;20045;-73
2022/02/15 13:34:35;;;;;;;30.88;15.15;;;;;;;10.67;83.91;99990.22;6282299;28;20032;-72
2022/02/15 13:37:43;;;;;;;20.80;11.30;;;;;;;10.72;83.90;99990.75;6299969;28;20041;-72
2022/02/15 13:40:46;;;;;;;19.00;11.35;;;;;;;10.77;84.46;99986.09;6282615;28;20056;-73
2022/02/15 13:44:02;;;;;;;22.17;12.43;;;;;;;10.75;83.97;99981.88;6282024;28;20052;-73
2022/02/15 13:47:03;;;;;;;22.17;11.68;;;;;;;10.80;84.31;99983.28;6298477;28;20139;-69
2022/02/15 13:50:05;;;;;;;22.83;14.07;;;;;;;10.81;85.03;99976.28;6299708;28;20040;-69
2022/02/15 13:53:06;;;;;;;26.40;14.23;;;;;;;10.78;86.43;99972.09;6298435;28;20280;-70
2022/02/15 13:56:06;;;;;;;21.60;12.60;;;;;;;10.75;87.38;99967.09;6298133;28;20057;-69
2022/02/15 13:59:09;;;;;;;19.88;11.45;;;;;;;10.73;84.99;99974.16;6298184;28;20177;-70
2022/02/15 14:02:10;;;;;;;89.57;41.33;;;;;;;10.69;85.73;99968.31;6298340;28;20403;-73
2022/02/15 14:05:12;;;;;;;29.92;14.93;;;;;;;10.61;85.11;99974.94;6264685;28;20063;-73